createdAt,value
2018-01-12T00:01:51.740Z,102504.44
2018-01-12T00:04:18.059Z,102501.98
2018-01-12T00:06:44.344Z,102508.89
2018-01-12T00:09:10.636Z,102505.64
2018-01-12T00:11:36.962Z,102513.39
2018-01-12T00:14:03.247Z,102513.73
2018-01-12T00:16:29.533Z,102513.13
2018-01-12T00:18:56.004Z,102512.09
2018-01-12T00:21:23.033Z,102513.39
2018-01-12T00:23:49.316Z,102508.39
2018-01-12T00:26:15.620Z,102520.04
2018-01-12T00:28:42.637Z,102523.94
2018-01-12T00:31:08.987Z,102517.75
2018-01-12T00:33:35.270Z,102512.26
2018-01-12T00:36:01.548Z,102518.31
2018-01-12T00:41:28.068Z,102524.61
2018-01-12T00:43:54.359Z,102531.19
2018-01-12T00:46:21.402Z,102536.94
2018-01-12T00:48:47.780Z,102534.78
2018-01-12T00:51:14.059Z,102529.13
2018-01-12T00:53:40.371Z,102528.32
2018-01-12T00:56:06.710Z,102532.00
2018-01-12T00:58:33.022Z,102525.36
2018-01-12T01:00:59.345Z,102521.33
2018-01-12T01:03:26.418Z,102523.95
2018-01-12T01:05:52.692Z,102522.23
2018-01-12T01:08:18.981Z,102529.60
2018-01-12T01:10:45.287Z,102524.66
2018-01-12T01:13:12.324Z,102534.44
2018-01-12T01:15:38.615Z,102534.69
2018-01-12T01:18:04.890Z,102531.31
2018-01-12T01:20:31.914Z,102539.39
2018-01-12T01:22:58.294Z,102533.62
2018-01-12T01:25:25.324Z,102530.94
2018-01-12T01:27:51.608Z,102535.19
2018-01-12T01:30:17.923Z,102537.99
2018-01-12T01:32:44.962Z,102532.56
2018-01-12T01:35:11.295Z,102536.66
2018-01-12T01:37:37.639Z,102531.87
2018-01-12T01:40:03.969Z,102532.83
2018-01-12T01:42:30.248Z,102534.28
2018-01-12T01:44:56.567Z,102537.94
2018-01-12T01:47:22.880Z,102536.91
2018-01-12T01:49:49.230Z,102537.38
2018-01-12T01:52:15.543Z,102539.87
2018-01-12T01:54:41.829Z,102546.62
2018-01-12T01:57:08.861Z,102546.89
2018-01-12T01:59:35.184Z,102554.17
2018-01-12T02:02:01.475Z,102557.73
2018-01-12T02:04:27.753Z,102565.55
2018-01-12T02:06:54.056Z,102563.59
2018-01-12T02:09:20.336Z,102567.62
2018-01-12T02:11:46.627Z,102569.23
2018-01-12T02:14:12.940Z,102562.70
2018-01-12T02:16:39.984Z,102569.22
2018-01-12T02:19:07.020Z,102574.11
2018-01-12T02:21:33.355Z,102575.15
2018-01-12T02:23:59.648Z,102571.20
2018-01-12T02:26:25.944Z,102578.27
2018-01-12T02:28:53.023Z,102576.41
2018-01-12T02:31:20.021Z,102581.10
2018-01-12T02:33:46.306Z,102582.85
2018-01-12T02:36:12.638Z,102577.55
2018-01-12T02:38:38.937Z,102575.42
2018-01-12T02:41:05.224Z,102574.30
2018-01-12T02:43:31.530Z,102581.25
2018-01-12T02:45:58.574Z,102579.19
2018-01-12T02:48:25.601Z,102579.73
2018-01-12T02:50:51.929Z,102577.93
2018-01-12T02:53:18.228Z,102577.19
2018-01-12T02:55:44.514Z,102578.44
2018-01-12T02:58:10.819Z,102577.44
2018-01-12T03:00:37.086Z,102581.86
2018-01-12T03:03:03.394Z,102578.87
2018-01-12T03:05:29.713Z,102583.10
2018-01-12T03:07:55.982Z,102578.57
2018-01-12T03:10:22.264Z,102580.38
2018-01-12T03:12:49.435Z,102582.69
2018-01-12T03:15:15.720Z,102590.34
2018-01-12T03:17:42.009Z,102593.23
2018-01-12T03:20:08.312Z,102597.03
2018-01-12T03:22:35.327Z,102593.92
2018-01-12T03:25:01.617Z,102597.94
2018-01-12T03:27:27.916Z,102599.86
2018-01-12T03:29:54.213Z,102592.63
2018-01-12T03:32:20.501Z,102594.51
2018-01-12T03:34:47.561Z,102593.19
2018-01-12T03:37:14.584Z,102592.85
2018-01-12T03:39:40.885Z,102587.47
2018-01-12T03:42:07.243Z,102589.78
2018-01-12T03:44:33.524Z,102587.52
2018-01-12T03:47:00.554Z,102586.30
2018-01-12T03:49:26.857Z,102588.08
2018-01-12T03:51:53.143Z,102581.82
2018-01-12T03:54:20.177Z,102590.73
2018-01-12T03:56:46.476Z,102586.05
2018-01-12T03:59:12.772Z,102585.08
2018-01-12T04:01:39.793Z,102583.30
2018-01-12T04:04:06.134Z,102576.27
2018-01-12T04:06:32.428Z,102573.77
2018-01-12T04:08:58.736Z,102569.24
2018-01-12T04:11:26.014Z,102571.55
2018-01-12T04:13:52.996Z,102576.54
2018-01-12T04:16:19.279Z,102584.95
2018-01-12T04:18:46.327Z,102586.34
2018-01-12T04:21:13.349Z,102586.30
2018-01-12T04:23:39.624Z,102591.81
2018-01-12T04:26:05.952Z,102592.23
2018-01-12T04:28:32.989Z,102597.17
2018-01-12T04:30:59.276Z,102598.94
2018-01-12T04:33:25.601Z,102599.09
2018-01-12T04:35:51.902Z,102600.35
2018-01-12T04:38:18.924Z,102605.34
2018-01-12T04:40:45.217Z,102598.65
2018-01-12T04:43:11.499Z,102605.41
2018-01-12T04:45:37.793Z,102601.92
2018-01-12T04:48:04.105Z,102605.84
2018-01-12T04:50:30.388Z,102608.96
2018-01-12T04:52:56.664Z,102598.38
2018-01-12T04:55:23.719Z,102606.98
2018-01-12T04:57:50.761Z,102601.48
2018-01-12T05:00:17.040Z,102607.33
2018-01-12T05:02:43.361Z,102603.86
2018-01-12T05:05:09.649Z,102610.55
2018-01-12T05:07:35.956Z,102605.66
2018-01-12T05:10:02.260Z,102611.89
2018-01-12T05:12:29.306Z,102607.07
2018-01-12T05:14:56.348Z,102613.76
2018-01-12T05:17:23.394Z,102616.44
2018-01-12T05:19:49.672Z,102613.30
2018-01-12T05:22:15.953Z,102619.23
2018-01-12T05:24:42.817Z,102616.44
2018-01-12T05:27:09.840Z,102616.66
2018-01-12T05:29:36.117Z,102612.03
2018-01-12T05:32:03.152Z,102618.66
2018-01-12T05:34:29.437Z,102616.37
2018-01-12T05:36:55.736Z,102620.46
2018-01-12T05:39:22.776Z,102625.41
2018-01-12T05:41:49.065Z,102619.82
2018-01-12T05:44:15.347Z,102620.97
2018-01-12T05:46:42.108Z,102619.98
2018-01-12T05:49:09.128Z,102619.87
2018-01-12T05:51:35.435Z,102622.52
2018-01-12T05:54:01.741Z,102619.92
2018-01-12T05:56:28.024Z,102620.97
2018-01-12T05:58:54.303Z,102621.91
2018-01-12T06:01:39.832Z,102627.23
2018-01-12T06:04:24.764Z,102629.08
2018-01-12T06:06:51.081Z,102630.14
2018-01-12T06:09:17.360Z,102634.60
2018-01-12T06:11:43.640Z,102636.52
2018-01-12T06:14:10.716Z,102632.69
2018-01-12T06:16:36.997Z,102633.87
2018-01-12T06:19:03.293Z,102638.78
2018-01-12T06:21:29.614Z,102635.95
2018-01-12T06:23:55.903Z,102640.77
2018-01-12T06:26:22.221Z,102640.02
2018-01-12T06:28:48.533Z,102641.88
2018-01-12T06:31:14.824Z,102653.56
2018-01-12T06:33:41.116Z,102652.58
2018-01-12T06:36:07.432Z,102648.92
2018-01-12T06:38:33.735Z,102643.94
2018-01-12T06:41:00.801Z,102649.46
2018-01-12T06:43:27.855Z,102657.08
2018-01-12T06:45:54.876Z,102670.12
2018-01-12T06:51:21.968Z,102666.39
2018-01-12T06:53:49.007Z,102670.11
2018-01-12T06:56:16.039Z,102668.80
2018-01-12T06:58:42.421Z,102671.03
2018-01-12T07:01:08.732Z,102666.23
2018-01-12T07:03:35.024Z,102669.38
2018-01-12T07:06:01.333Z,102671.87
2018-01-12T07:08:27.621Z,102666.65
2018-01-12T07:10:53.931Z,102670.32
2018-01-12T07:13:20.264Z,102675.69
2018-01-12T07:15:46.552Z,102672.06
2018-01-12T07:18:13.584Z,102681.46
2018-01-12T07:20:58.420Z,102681.48
2018-01-12T07:23:45.567Z,102685.61
2018-01-12T07:26:12.592Z,102684.17
2018-01-12T07:28:38.884Z,102690.79
2018-01-12T07:31:05.185Z,102697.00
2018-01-12T07:33:31.483Z,102692.21
2018-01-12T07:35:57.756Z,102693.87
2018-01-12T07:38:24.104Z,102695.09
2018-01-12T07:40:51.145Z,102702.83
2018-01-12T07:43:17.424Z,102701.59
2018-01-12T07:45:43.704Z,102699.83
2018-01-12T07:48:11.029Z,102705.73
2018-01-12T07:50:37.385Z,102705.66
2018-01-12T07:53:09.869Z,102704.73
2018-01-12T07:55:36.171Z,102706.44
2018-01-12T07:58:02.448Z,102711.37
2018-01-12T08:00:34.789Z,102713.59
2018-01-12T08:03:03.016Z,102709.60
2018-01-12T08:05:30.091Z,102713.23
2018-01-12T08:07:56.385Z,102717.48
2018-01-12T08:10:22.673Z,102718.88
2018-01-12T08:12:48.966Z,102723.94
2018-01-12T08:15:16.028Z,102727.03
2018-01-12T08:17:43.046Z,102730.02
2018-01-12T08:20:09.336Z,102735.16
2018-01-12T08:22:35.690Z,102736.25
2018-01-12T08:25:01.987Z,102731.47
2018-01-12T08:27:29.039Z,102732.91
2018-01-12T08:29:56.060Z,102730.77
2018-01-12T08:32:22.343Z,102731.67
2018-01-12T08:34:48.627Z,102728.94
2018-01-12T08:37:14.902Z,102734.98
2018-01-12T08:39:41.982Z,102733.15
2018-01-12T08:42:08.251Z,102741.07
2018-01-12T08:44:34.541Z,102742.17
2018-01-12T08:47:01.264Z,102740.31
2018-01-12T08:49:28.292Z,102744.91
2018-01-12T08:51:54.612Z,102743.70
2018-01-12T08:54:20.912Z,102750.66
2018-01-12T08:56:47.206Z,102758.05
2018-01-12T08:59:13.515Z,102763.44
2018-01-12T09:01:39.801Z,102763.17
2018-01-12T09:04:06.256Z,102765.83
2018-01-12T09:06:32.552Z,102761.52
2018-01-12T09:08:58.828Z,102769.34
2018-01-12T09:11:25.135Z,102771.58
2018-01-12T09:13:55.015Z,102771.80
2018-01-12T09:16:26.211Z,102774.89
2018-01-12T09:25:39.304Z,102778.11
2018-01-12T09:28:05.751Z,102784.40
2018-01-12T09:30:32.038Z,102779.92
2018-01-12T09:32:58.548Z,102775.23
2018-01-12T09:35:25.624Z,102779.91
2018-01-12T09:38:10.594Z,102784.37
2018-01-12T09:40:47.048Z,102785.34
2018-01-12T09:43:13.375Z,102789.36
2018-01-12T09:45:39.764Z,102795.80
2018-01-12T09:48:25.516Z,102789.61
2018-01-12T09:50:51.836Z,102796.37
2018-01-12T09:53:18.126Z,102795.08
2018-01-12T09:55:44.445Z,102793.22
2018-01-12T09:58:10.757Z,102793.38
2018-01-12T10:14:10.564Z,102789.61
2018-01-12T10:16:36.906Z,102781.94
2018-01-12T10:19:03.475Z,102786.22
2018-01-12T10:21:40.102Z,102782.69
2018-01-12T10:24:06.384Z,102782.28
2018-01-12T10:26:33.411Z,102786.30
2018-01-12T10:29:08.668Z,102784.17
2018-01-12T10:31:49.455Z,102783.00
2018-01-12T10:34:43.710Z,102779.40
2018-01-12T10:37:10.726Z,102776.14
2018-01-12T10:39:55.464Z,102774.09
2018-01-12T10:42:21.816Z,102777.70
2018-01-12T10:44:48.135Z,102777.78
2018-01-12T10:47:30.307Z,102777.94
2018-01-12T10:50:17.415Z,102781.10
2018-01-12T10:52:46.560Z,102781.87
2018-01-12T10:55:12.869Z,102777.62
2018-01-12T10:57:39.228Z,102778.30
2018-01-12T11:00:05.527Z,102778.89
2018-01-12T11:02:32.629Z,102778.13
2018-01-12T11:04:58.979Z,102779.72
2018-01-12T11:07:25.339Z,102771.38
2018-01-12T11:09:51.625Z,102774.91
2018-01-12T11:12:17.946Z,102768.80
2018-01-12T11:14:44.296Z,102764.50
2018-01-12T11:17:10.654Z,102764.37
2018-01-12T11:19:36.947Z,102759.02
2018-01-12T11:22:03.273Z,102756.02
2018-01-12T11:24:30.300Z,102757.78
2018-01-12T11:26:56.624Z,102761.23
2018-01-12T11:29:22.981Z,102761.06
2018-01-12T11:31:49.316Z,102754.70
2018-01-12T11:34:16.416Z,102759.26
2018-01-12T11:36:42.697Z,102754.06
2018-01-12T11:39:08.997Z,102745.59
2018-01-12T11:41:35.308Z,102748.64
2018-01-12T11:44:01.660Z,102743.84
2018-01-12T11:46:28.049Z,102749.74
2018-01-12T11:48:55.140Z,102744.48
2018-01-12T11:51:21.466Z,102743.38
2018-01-12T11:53:47.747Z,102736.48
2018-01-12T11:56:14.067Z,102734.13
2018-01-12T11:58:40.398Z,102735.24
2018-01-12T12:01:06.769Z,102739.67
2018-01-12T12:03:33.096Z,102739.47
2018-01-12T12:05:59.433Z,102736.69
2018-01-12T12:08:25.728Z,102733.11
2018-01-12T12:10:52.015Z,102729.91
2018-01-12T12:13:19.247Z,102721.74
2018-01-12T12:15:45.584Z,102721.30
2018-01-12T12:18:11.912Z,102723.80
2018-01-12T12:20:38.231Z,102721.89
2018-01-12T12:23:04.538Z,102715.11
2018-01-12T12:25:31.587Z,102719.90
2018-01-12T12:27:58.614Z,102716.65
2018-01-12T12:30:24.952Z,102710.88
2018-01-12T12:32:51.224Z,102715.25
2018-01-12T12:35:17.520Z,102714.07
2018-01-12T12:37:43.813Z,102714.79
2018-01-12T12:40:10.115Z,102712.06
2018-01-12T12:42:37.329Z,102715.16
2018-01-12T12:45:03.616Z,102712.89
2018-01-12T12:47:30.639Z,102714.69
2018-01-12T12:49:56.940Z,102712.58
2018-01-12T12:52:23.244Z,102712.62
2018-01-12T12:54:49.546Z,102712.67
2018-01-12T12:57:15.860Z,102703.78
2018-01-12T12:59:42.146Z,102714.52
2018-01-12T13:02:09.176Z,102709.97
2018-01-12T13:04:35.445Z,102712.60
2018-01-12T13:07:01.923Z,102706.65
2018-01-12T13:34:15.090Z,102710.03
2018-01-12T13:36:41.485Z,102717.48
2018-01-12T13:39:07.825Z,102715.52
2018-01-12T13:41:34.210Z,102713.77
2018-01-12T13:44:00.556Z,102715.08
2018-01-12T13:46:26.894Z,102714.53
2018-01-12T13:48:53.997Z,102716.94
2018-01-12T13:51:20.345Z,102721.52
2018-01-12T13:53:46.676Z,102721.65
2018-01-12T13:56:13.031Z,102721.23
2018-01-12T13:58:39.376Z,102731.80
2018-01-12T14:01:05.744Z,102732.01
2018-01-12T14:03:32.853Z,102732.22
2018-01-12T14:05:59.175Z,102729.23
2018-01-12T14:08:25.496Z,102731.97
2018-01-12T14:10:51.870Z,102724.77
2018-01-12T14:13:18.222Z,102729.70
2018-01-12T14:15:44.553Z,102730.47
2018-01-12T14:18:12.836Z,102732.44
2018-01-12T14:20:39.158Z,102736.41
2018-01-12T14:23:05.498Z,102736.46
2018-01-12T14:25:31.891Z,102745.81
2018-01-12T14:27:58.208Z,102749.28
2018-01-12T14:30:24.550Z,102748.44
2018-01-12T14:32:51.665Z,102753.39
2018-01-12T14:35:18.017Z,102754.24
2018-01-12T14:37:44.392Z,102757.30
2018-01-12T14:40:10.771Z,102750.72
2018-01-12T14:42:37.093Z,102751.82
2018-01-12T14:45:03.449Z,102752.57
2018-01-12T14:47:29.842Z,102746.02
2018-01-12T14:49:56.190Z,102748.24
2018-01-12T14:52:22.508Z,102751.14
2018-01-12T14:54:48.881Z,102740.39
2018-01-12T14:57:15.220Z,102738.52
2018-01-12T14:59:41.594Z,102743.12
2018-01-12T15:02:07.944Z,102735.10
2018-01-12T15:04:35.008Z,102735.67
2018-01-12T15:07:01.729Z,102741.42
2018-01-12T15:09:28.076Z,102734.77
2018-01-12T15:11:55.156Z,102737.38
2018-01-12T15:14:21.508Z,102739.16
2018-01-12T15:16:47.859Z,102738.08
2018-01-12T15:19:14.239Z,102738.94
2018-01-12T15:21:40.605Z,102736.74
2018-01-12T15:24:06.976Z,102743.92
2018-01-12T15:26:33.335Z,102737.83
2018-01-12T15:29:00.439Z,102745.91
2018-01-12T15:31:26.974Z,102743.72
2018-01-12T15:33:53.340Z,102738.80
2018-01-12T15:36:19.950Z,102738.09
2018-01-12T15:38:46.349Z,102744.50
2018-01-12T15:41:12.702Z,102740.09
2018-01-12T15:43:39.037Z,102737.08
2018-01-12T15:46:05.434Z,102733.33
2018-01-12T15:48:31.833Z,102733.48
2018-01-12T15:50:58.180Z,102731.80
2018-01-12T15:53:24.560Z,102738.61
2018-01-12T15:55:50.912Z,102730.48
2018-01-12T15:58:17.237Z,102736.88
2018-01-12T16:00:43.624Z,102729.40
2018-01-12T16:03:09.966Z,102725.59
2018-01-12T16:05:36.333Z,102731.78
2018-01-12T16:08:02.678Z,102724.87
2018-01-12T16:10:29.028Z,102717.20
2018-01-12T16:12:55.402Z,102722.37
2018-01-12T16:15:21.774Z,102727.29
2018-01-12T16:17:48.176Z,102722.75
2018-01-12T16:20:14.533Z,102723.97
2018-01-12T16:22:41.673Z,102726.61
2018-01-12T16:25:08.066Z,102729.17
2018-01-12T16:27:34.437Z,102728.63
2018-01-12T16:30:00.830Z,102727.19
2018-01-12T16:32:27.168Z,102730.20
2018-01-12T16:34:53.518Z,102726.43
2018-01-12T16:37:19.880Z,102723.36
2018-01-12T16:39:46.247Z,102724.01
2018-01-12T16:42:13.334Z,102724.39
2018-01-12T16:44:39.744Z,102734.41
2018-01-12T16:47:06.871Z,102733.27
2018-01-12T16:49:33.274Z,102730.37
2018-01-12T16:51:59.650Z,102730.63
2018-01-12T16:54:26.005Z,102732.77
2018-01-12T16:56:52.364Z,102732.38
2018-01-12T16:59:18.738Z,102732.73
2018-01-12T17:01:45.081Z,102736.30
2018-01-12T17:04:11.403Z,102736.77
2018-01-12T17:06:37.839Z,102738.02
2018-01-12T17:09:04.217Z,102736.20
2018-01-12T17:11:30.559Z,102733.05
2018-01-12T17:13:56.961Z,102731.43
2018-01-12T17:16:23.305Z,102723.02
2018-01-12T17:18:49.686Z,102739.78
2018-01-12T17:21:16.076Z,102733.38
2018-01-12T17:23:42.431Z,102738.18
2018-01-12T17:26:08.756Z,102731.11
2018-01-12T17:28:35.188Z,102734.55
2018-01-12T17:31:01.562Z,102740.64
2018-01-12T17:33:27.941Z,102743.33
2018-01-12T17:35:54.320Z,102737.96
2018-01-12T17:38:20.658Z,102740.44
2018-01-12T17:40:47.001Z,102735.77
2018-01-12T17:43:13.367Z,102737.48
2018-01-12T17:45:39.756Z,102739.79
2018-01-12T17:48:06.159Z,102737.77
2018-01-12T17:50:32.543Z,102737.42
2018-01-12T17:52:59.113Z,102735.13
2018-01-12T17:55:26.379Z,102732.80
2018-01-12T17:57:52.802Z,102735.56
2018-01-12T18:00:19.197Z,102734.08
2018-01-12T18:02:45.531Z,102736.64
2018-01-12T18:05:12.097Z,102744.70
2018-01-12T18:07:38.494Z,102747.09
2018-01-12T18:10:04.847Z,102747.97
2018-01-12T18:12:31.215Z,102745.50
2018-01-12T18:14:57.591Z,102750.62
2018-01-12T18:17:23.957Z,102746.47
2018-01-12T18:19:50.308Z,102745.37
2018-01-12T18:22:16.750Z,102739.41
2018-01-12T18:24:43.157Z,102736.65
2018-01-12T18:27:09.500Z,102739.47
2018-01-12T18:29:35.932Z,102739.75
2018-01-12T18:32:02.273Z,102744.59
2018-01-12T18:34:28.625Z,102750.02
2018-01-12T18:36:54.954Z,102743.73
2018-01-12T18:39:21.280Z,102744.33
2018-01-12T18:41:47.836Z,102742.02
2018-01-12T18:44:14.179Z,102744.41
2018-01-12T18:46:40.508Z,102752.66
2018-01-12T18:49:06.827Z,102758.11
2018-01-12T18:51:33.157Z,102758.37
2018-01-12T18:53:59.560Z,102761.43
2018-01-12T18:56:25.952Z,102763.66
2018-01-12T18:58:52.385Z,102764.28
2018-01-12T19:01:18.786Z,102764.24
2018-01-12T19:03:45.878Z,102766.58
2018-01-12T19:06:13.048Z,102763.88
2018-01-12T19:08:39.467Z,102768.28
2018-01-12T19:11:05.832Z,102764.54
2018-01-12T19:13:32.204Z,102764.48
2018-01-12T19:15:59.339Z,102773.98
2018-01-12T19:18:25.911Z,102768.08
2018-01-12T19:20:52.968Z,102770.59
2018-01-12T19:23:19.354Z,102768.40
2018-01-12T19:25:45.693Z,102767.47
2018-01-12T19:28:12.072Z,102764.87
2018-01-12T19:30:38.483Z,102765.28
2018-01-12T19:33:04.876Z,102769.83
2018-01-12T19:35:31.325Z,102766.02
2018-01-12T19:37:57.668Z,102770.64
2018-01-12T19:40:24.052Z,102770.50
2018-01-12T19:42:50.454Z,102769.83
2018-01-12T19:45:16.862Z,102763.94
2018-01-12T19:47:43.240Z,102767.08
2018-01-12T19:50:09.606Z,102765.80
2018-01-12T19:52:36.710Z,102768.07
2018-01-12T19:55:03.147Z,102771.91
2018-01-12T19:57:29.528Z,102773.41
2018-01-12T19:59:56.615Z,102777.68
2018-01-12T20:02:22.976Z,102775.47
2018-01-12T20:04:49.374Z,102775.27
2018-01-12T20:07:15.750Z,102781.48
2018-01-12T20:09:42.277Z,102782.16
2018-01-12T20:12:08.871Z,102778.37
2018-01-12T20:14:35.503Z,102779.59
2018-01-12T20:17:02.211Z,102790.58
2018-01-12T20:19:28.915Z,102788.97
2018-01-12T20:21:55.302Z,102788.86
2018-01-12T20:24:21.947Z,102781.12
2018-01-12T20:26:49.089Z,102781.97
2018-01-12T20:29:15.477Z,102788.36
2018-01-12T20:31:41.856Z,102784.62
2018-01-12T20:34:08.468Z,102780.01
2018-01-12T20:36:34.948Z,102780.42
2018-01-12T20:39:01.302Z,102791.22
2018-01-12T20:41:27.678Z,102786.78
2018-01-12T20:43:54.486Z,102786.58
2018-01-12T20:46:20.871Z,102780.66
2018-01-12T20:48:47.203Z,102787.31
2018-01-12T20:51:13.544Z,102786.61
2018-01-12T20:53:40.648Z,102786.52
2018-01-12T20:56:07.021Z,102788.22
2018-01-12T20:58:33.372Z,102782.81
2018-01-12T21:01:00.466Z,102783.25
2018-01-12T21:03:26.814Z,102783.50
2018-01-12T21:05:53.145Z,102782.00
2018-01-12T21:08:19.519Z,102788.27
2018-01-12T21:10:45.914Z,102788.45
2018-01-12T21:13:12.311Z,102793.20
2018-01-12T21:15:38.687Z,102782.05
2018-01-12T21:18:04.997Z,102781.55
2018-01-12T21:20:31.415Z,102780.00
2018-01-12T21:22:57.767Z,102778.69
2018-01-12T21:25:24.872Z,102781.28
2018-01-12T21:27:51.196Z,102780.83
2018-01-12T21:30:17.563Z,102775.11
2018-01-12T21:32:43.981Z,102769.73
2018-01-12T21:35:10.338Z,102766.17
2018-01-12T21:37:36.662Z,102767.05
2018-01-12T21:40:03.020Z,102756.52
2018-01-12T21:42:29.387Z,102759.42
2018-01-12T21:44:55.746Z,102752.30
2018-01-12T21:47:22.118Z,102750.02
2018-01-12T21:49:48.507Z,102753.55
2018-01-12T21:52:14.895Z,102751.52
2018-01-12T21:54:41.266Z,102750.23
2018-01-12T21:57:07.646Z,102750.11
2018-01-12T21:59:33.983Z,102750.52
2018-01-12T22:02:00.317Z,102747.42
2018-01-12T22:04:26.642Z,102749.08
2018-01-12T22:06:52.985Z,102749.48
2018-01-12T22:09:19.511Z,102748.52
2018-01-12T22:11:45.878Z,102745.83
2018-01-12T22:14:12.267Z,102750.86
2018-01-12T22:16:38.623Z,102746.83
2018-01-12T22:19:04.989Z,102750.89
2018-01-12T22:21:31.852Z,102750.86
2018-01-12T22:23:58.190Z,102751.27
2018-01-12T22:26:24.551Z,102747.86
2018-01-12T22:28:50.876Z,102756.67
2018-01-12T22:31:17.210Z,102752.45
2018-01-12T22:33:43.582Z,102754.69
2018-01-12T22:36:09.951Z,102750.09
2018-01-12T22:38:36.303Z,102752.84
2018-01-12T22:41:02.673Z,102749.47
2018-01-12T22:43:29.015Z,102753.69
2018-01-12T22:45:56.136Z,102743.91
2018-01-12T22:48:22.478Z,102746.19
2018-01-12T22:50:48.822Z,102737.11
2018-01-12T22:53:15.173Z,102732.81
2018-01-12T22:55:41.515Z,102741.20
2018-01-12T22:58:07.897Z,102734.87
2018-01-12T23:51:16.806Z,102716.20
2018-01-12T23:53:43.444Z,102719.73
2018-01-12T23:56:10.192Z,102716.94
2018-01-12T23:58:36.845Z,102713.79
